createdAt,value
2019-03-26T00:00:01.943Z,927.4
2019-03-26T00:00:15.097Z,927.37
2019-03-26T00:00:28.050Z,927.39
2019-03-26T00:00:41.055Z,927.38
2019-03-26T00:00:54.020Z,927.38
2019-03-26T00:01:06.955Z,927.35
2019-03-26T00:01:19.971Z,927.38
2019-03-26T00:01:32.975Z,927.37
2019-03-26T00:01:45.987Z,927.39
2019-03-26T00:01:59.026Z,927.36
2019-03-26T00:02:12.145Z,927.37
2019-03-26T00:02:25.138Z,927.39
2019-03-26T00:02:38.259Z,927.37
2019-03-26T00:02:51.284Z,927.38
2019-03-26T00:03:03.823Z,927.38
2019-03-26T00:03:16.797Z,927.38
2019-03-26T00:03:29.793Z,927.36
2019-03-26T00:03:42.804Z,927.35
2019-03-26T00:04:09.125Z,927.35
2019-03-26T00:04:22.137Z,927.35
2019-03-26T00:04:35.129Z,927.36
2019-03-26T00:04:48.151Z,927.38
2019-03-26T00:05:01.076Z,927.37
2019-03-26T00:05:14.062Z,927.36
2019-03-26T00:05:27.128Z,927.37
2019-03-26T00:05:40.218Z,927.38
2019-03-26T00:05:53.222Z,927.35
2019-03-26T00:06:06.239Z,927.38
2019-03-26T00:06:19.194Z,927.34
2019-03-26T00:06:32.217Z,927.38
2019-03-26T00:06:45.243Z,927.38
2019-03-26T00:06:58.269Z,927.4
2019-03-26T00:07:11.261Z,927.38
2019-03-26T00:07:23.766Z,927.37
2019-03-26T00:07:36.822Z,927.4
2019-03-26T00:07:49.883Z,927.39
2019-03-26T00:08:02.960Z,927.4
2019-03-26T00:08:16.044Z,927.35
2019-03-26T00:08:29.103Z,927.37
2019-03-26T00:08:41.672Z,927.37
2019-03-26T00:08:54.695Z,927.35
2019-03-26T00:09:07.650Z,927.35
2019-03-26T00:09:20.663Z,927.4
2019-03-26T00:09:33.613Z,927.35
2019-03-26T00:09:46.642Z,927.39
2019-03-26T00:09:59.621Z,927.4
2019-03-26T00:10:12.609Z,927.4
2019-03-26T00:10:25.641Z,927.36
2019-03-26T00:10:38.775Z,927.38
2019-03-26T00:10:51.702Z,927.36
2019-03-26T00:11:04.740Z,927.36
2019-03-26T00:11:17.772Z,927.41
2019-03-26T00:11:30.346Z,927.41
2019-03-26T00:11:43.443Z,927.39
2019-03-26T00:11:56.719Z,927.4
2019-03-26T00:12:09.359Z,927.42
2019-03-26T00:12:22.338Z,927.41
2019-03-26T00:12:35.341Z,927.41
2019-03-26T00:12:48.258Z,927.41
2019-03-26T00:13:01.267Z,927.44
2019-03-26T00:13:14.241Z,927.47
2019-03-26T00:13:27.193Z,927.47
2019-03-26T00:13:40.144Z,927.49
2019-03-26T00:13:53.196Z,927.45
2019-03-26T00:14:07.818Z,927.48
2019-03-26T00:14:20.848Z,927.48
2019-03-26T00:14:33.747Z,927.45
2019-03-26T00:14:46.768Z,927.52
2019-03-26T00:14:59.820Z,927.47
2019-03-26T00:15:12.790Z,927.5
2019-03-26T00:15:25.819Z,927.51
2019-03-26T00:15:38.778Z,927.49
2019-03-26T00:15:51.767Z,927.51
2019-03-26T00:16:04.884Z,927.49
2019-03-26T00:16:17.905Z,927.51
2019-03-26T00:16:30.981Z,927.51
2019-03-26T00:16:43.985Z,927.52
2019-03-26T00:16:57.166Z,927.47
2019-03-26T00:17:10.218Z,927.51
2019-03-26T00:17:23.234Z,927.49
2019-03-26T00:17:36.275Z,927.51
2019-03-26T00:17:49.234Z,927.49
2019-03-26T00:18:02.312Z,927.54
2019-03-26T00:18:15.456Z,927.51
2019-03-26T00:18:28.412Z,927.54
2019-03-26T00:18:41.381Z,927.51
2019-03-26T00:18:54.375Z,927.52
2019-03-26T00:19:07.483Z,927.52
2019-03-26T00:19:20.558Z,927.54
2019-03-26T00:19:33.631Z,927.52
2019-03-26T00:19:46.611Z,927.54
2019-03-26T00:19:59.681Z,927.51
2019-03-26T00:20:12.724Z,927.51
2019-03-26T00:20:27.815Z,927.5
2019-03-26T00:20:40.842Z,927.5
2019-03-26T00:20:53.770Z,927.52
2019-03-26T00:21:06.852Z,927.54
2019-03-26T00:21:19.798Z,927.51
2019-03-26T00:21:32.858Z,927.54
2019-03-26T00:21:45.994Z,927.52
2019-03-26T00:21:58.882Z,927.51
2019-03-26T00:22:11.834Z,927.52
2019-03-26T00:22:24.854Z,927.54
2019-03-26T00:22:37.821Z,927.53
2019-03-26T00:22:50.912Z,927.58
2019-03-26T00:23:03.898Z,927.54
2019-03-26T00:23:16.814Z,927.57
2019-03-26T00:23:29.857Z,927.57
2019-03-26T00:23:42.895Z,927.55
2019-03-26T00:23:56.110Z,927.51
2019-03-26T00:24:08.709Z,927.53
2019-03-26T00:24:21.300Z,927.53
2019-03-26T00:24:34.350Z,927.55
2019-03-26T00:24:47.345Z,927.55
2019-03-26T00:25:00.484Z,927.55
2019-03-26T00:25:13.537Z,927.59
2019-03-26T00:25:26.557Z,927.6
2019-03-26T00:25:39.522Z,927.58
2019-03-26T00:25:52.526Z,927.59
2019-03-26T00:26:05.617Z,927.6
2019-03-26T00:26:18.679Z,927.57
2019-03-26T00:26:31.605Z,927.61
2019-03-26T00:26:44.225Z,927.63
2019-03-26T00:26:57.192Z,927.66
2019-03-26T00:27:15.001Z,927.62
2019-03-26T00:27:27.986Z,927.6
2019-03-26T00:27:40.915Z,927.62
2019-03-26T00:27:53.978Z,927.62
2019-03-26T00:28:07.000Z,927.67
2019-03-26T00:28:19.911Z,927.65
2019-03-26T00:28:32.899Z,927.69
2019-03-26T00:28:45.907Z,927.63
2019-03-26T00:28:58.979Z,927.69
2019-03-26T00:29:11.995Z,927.66
2019-03-26T00:29:24.675Z,927.69
2019-03-26T00:29:37.663Z,927.68
2019-03-26T00:29:50.163Z,927.72
2019-03-26T00:30:03.144Z,927.7
2019-03-26T00:30:16.112Z,927.67
2019-03-26T00:30:29.150Z,927.64
2019-03-26T00:30:42.203Z,927.67
2019-03-26T00:30:55.176Z,927.64
2019-03-26T00:31:08.257Z,927.68
2019-03-26T00:31:21.306Z,927.67
2019-03-26T00:31:33.836Z,927.66
2019-03-26T00:31:46.831Z,927.65
2019-03-26T00:31:59.818Z,927.67
2019-03-26T00:32:12.853Z,927.67
2019-03-26T00:32:27.710Z,927.67
2019-03-26T00:32:40.674Z,927.64
2019-03-26T00:32:53.731Z,927.64
2019-03-26T00:33:06.678Z,927.65
2019-03-26T00:33:19.697Z,927.64
2019-03-26T00:33:45.916Z,927.63
2019-03-26T00:33:58.471Z,927.63
2019-03-26T00:34:23.164Z,927.67
2019-03-26T00:34:36.120Z,927.62
2019-03-26T00:34:49.091Z,927.62
2019-03-26T00:35:01.717Z,927.65
2019-03-26T00:35:14.708Z,927.61
2019-03-26T00:35:27.659Z,927.61
2019-03-26T00:35:40.637Z,927.64
2019-03-26T00:35:53.571Z,927.66
2019-03-26T00:36:06.576Z,927.6
2019-03-26T00:36:19.161Z,927.6
2019-03-26T00:36:32.153Z,927.6
2019-03-26T00:36:45.146Z,927.62
2019-03-26T00:36:58.198Z,927.59
2019-03-26T00:37:11.306Z,927.58
2019-03-26T00:37:24.235Z,927.58
2019-03-26T00:37:37.256Z,927.61
2019-03-26T00:37:50.170Z,927.63
2019-03-26T00:38:03.108Z,927.61
2019-03-26T00:38:16.157Z,927.61
2019-03-26T00:38:29.316Z,927.6
2019-03-26T00:38:42.687Z,927.62
2019-03-26T00:38:56.185Z,927.64
2019-03-26T00:39:09.196Z,927.61
2019-03-26T00:39:22.237Z,927.63
2019-03-26T00:39:35.324Z,927.68
2019-03-26T00:39:48.447Z,927.66
2019-03-26T00:40:01.481Z,927.66
2019-03-26T00:40:14.446Z,927.64
2019-03-26T00:40:27.485Z,927.65
2019-03-26T00:40:41.358Z,927.63
2019-03-26T00:40:54.386Z,927.67
2019-03-26T00:41:07.361Z,927.66
2019-03-26T00:41:20.298Z,927.62
2019-03-26T00:41:33.372Z,927.66
2019-03-26T00:41:46.367Z,927.64
2019-03-26T00:41:59.369Z,927.67
2019-03-26T00:42:12.497Z,927.68
2019-03-26T00:42:25.425Z,927.65
2019-03-26T00:42:38.467Z,927.68
2019-03-26T00:42:51.444Z,927.67
2019-03-26T00:43:04.529Z,927.65
2019-03-26T00:43:17.571Z,927.66
2019-03-26T00:43:30.555Z,927.7
2019-03-26T00:43:43.661Z,927.71
2019-03-26T00:43:56.676Z,927.66
2019-03-26T00:44:09.246Z,927.63
2019-03-26T00:44:22.234Z,927.66
2019-03-26T00:44:34.730Z,927.66
2019-03-26T00:44:47.756Z,927.64
2019-03-26T00:45:00.788Z,927.68
2019-03-26T00:45:13.663Z,927.67
2019-03-26T00:45:26.589Z,927.64
2019-03-26T00:45:39.538Z,927.67
2019-03-26T00:45:52.646Z,927.66
2019-03-26T00:46:05.583Z,927.71
2019-03-26T00:46:18.532Z,927.64
2019-03-26T00:46:31.575Z,927.65
2019-03-26T00:46:44.579Z,927.62
2019-03-26T00:46:57.608Z,927.61
2019-03-26T00:47:10.644Z,927.63
2019-03-26T00:47:23.584Z,927.6
2019-03-26T00:47:36.559Z,927.61
2019-03-26T00:47:49.685Z,927.6
2019-03-26T00:48:02.201Z,927.62
2019-03-26T00:48:15.267Z,927.6
2019-03-26T00:48:28.455Z,927.6
2019-03-26T00:48:41.476Z,927.58
2019-03-26T00:48:54.464Z,927.57
2019-03-26T00:49:07.468Z,927.57
2019-03-26T00:49:20.426Z,927.56
2019-03-26T00:49:33.391Z,927.6
2019-03-26T00:49:46.418Z,927.56
2019-03-26T00:49:59.481Z,927.54
2019-03-26T00:50:12.017Z,927.59
2019-03-26T00:50:25.024Z,927.56
2019-03-26T00:50:38.012Z,927.57
2019-03-26T00:50:50.990Z,927.56
2019-03-26T00:51:03.957Z,927.56
2019-03-26T00:51:17.020Z,927.54
2019-03-26T00:51:30.099Z,927.52
2019-03-26T00:51:43.178Z,927.55
2019-03-26T00:51:56.106Z,927.56
2019-03-26T00:52:09.046Z,927.57
2019-03-26T00:52:22.071Z,927.54
2019-03-26T00:52:35.116Z,927.54
2019-03-26T00:52:47.649Z,927.57
2019-03-26T00:53:00.613Z,927.51
2019-03-26T00:53:13.578Z,927.54
2019-03-26T00:53:26.527Z,927.51
2019-03-26T00:53:39.087Z,927.52
2019-03-26T00:53:52.131Z,927.53
2019-03-26T00:54:05.116Z,927.54
2019-03-26T00:54:18.122Z,927.54
2019-03-26T00:54:31.094Z,927.56
2019-03-26T00:54:44.062Z,927.53
2019-03-26T00:54:56.996Z,927.53
2019-03-26T00:55:23.319Z,927.53
2019-03-26T00:55:36.343Z,927.52
2019-03-26T00:55:49.322Z,927.57
2019-03-26T00:56:02.405Z,927.53
2019-03-26T00:56:15.491Z,927.52
2019-03-26T00:56:28.524Z,927.53
2019-03-26T00:56:41.427Z,927.55
2019-03-26T00:56:54.381Z,927.54
2019-03-26T00:57:07.493Z,927.54
2019-03-26T00:57:21.362Z,927.56
2019-03-26T00:57:34.369Z,927.51
2019-03-26T00:57:47.355Z,927.48
2019-03-26T00:58:02.849Z,927.46
2019-03-26T00:58:15.483Z,927.49
2019-03-26T00:58:28.490Z,927.49
2019-03-26T00:58:41.474Z,927.51
2019-03-26T00:58:54.470Z,927.5
2019-03-26T00:59:07.546Z,927.49
2019-03-26T00:59:20.631Z,927.53
2019-03-26T00:59:33.641Z,927.5
2019-03-26T00:59:46.582Z,927.49
2019-03-26T00:59:59.500Z,927.52
2019-03-26T01:00:12.522Z,927.52
2019-03-26T01:00:25.516Z,927.5
2019-03-26T01:00:38.478Z,927.5
2019-03-26T01:00:51.402Z,927.49
2019-03-26T01:01:04.457Z,927.51
2019-03-26T01:01:17.365Z,927.5
2019-03-26T01:01:30.346Z,927.51
2019-03-26T01:01:43.352Z,927.56
2019-03-26T01:01:56.421Z,927.52
2019-03-26T01:02:09.382Z,927.52
2019-03-26T01:02:22.378Z,927.53
2019-03-26T01:02:35.504Z,927.55
2019-03-26T01:02:48.049Z,927.53
2019-03-26T01:03:01.042Z,927.53
2019-03-26T01:03:13.557Z,927.55
2019-03-26T01:03:26.526Z,927.55
2019-03-26T01:03:39.501Z,927.52
2019-03-26T01:03:55.988Z,927.52
2019-03-26T01:04:08.920Z,927.51
2019-03-26T01:04:33.847Z,927.51
2019-03-26T01:04:46.936Z,927.5
2019-03-26T01:04:59.868Z,927.5
2019-03-26T01:05:13.034Z,927.51
2019-03-26T01:05:26.095Z,927.49
2019-03-26T01:05:39.053Z,927.49
2019-03-26T01:05:52.005Z,927.5
2019-03-26T01:06:05.064Z,927.51
2019-03-26T01:06:18.025Z,927.51
2019-03-26T01:06:30.932Z,927.5
2019-03-26T01:06:43.982Z,927.5
2019-03-26T01:06:56.996Z,927.53
2019-03-26T01:07:09.986Z,927.48
2019-03-26T01:07:22.941Z,927.5
2019-03-26T01:07:35.877Z,927.5
2019-03-26T01:07:48.880Z,927.54
2019-03-26T01:08:01.927Z,927.47
2019-03-26T01:08:14.931Z,927.52
2019-03-26T01:08:27.948Z,927.5
2019-03-26T01:08:40.493Z,927.51
2019-03-26T01:08:53.439Z,927.51
2019-03-26T01:09:06.046Z,927.5
2019-03-26T01:09:19.038Z,927.51
2019-03-26T01:09:32.067Z,927.53
2019-03-26T01:09:45.119Z,927.56
2019-03-26T01:09:58.130Z,927.55
2019-03-26T01:10:11.121Z,927.55
2019-03-26T01:10:24.218Z,927.54
2019-03-26T01:10:37.195Z,927.55
2019-03-26T01:10:50.204Z,927.55
2019-03-26T01:11:03.281Z,927.57
2019-03-26T01:11:16.273Z,927.55
2019-03-26T01:11:29.272Z,927.57
2019-03-26T01:11:42.279Z,927.55
2019-03-26T01:11:55.291Z,927.56
2019-03-26T01:12:08.360Z,927.52
2019-03-26T01:12:21.617Z,927.57
2019-03-26T01:12:35.456Z,927.54
2019-03-26T01:12:48.524Z,927.53
2019-03-26T01:13:01.506Z,927.57
2019-03-26T01:13:14.538Z,927.59
2019-03-26T01:13:27.649Z,927.57
2019-03-26T01:13:40.580Z,927.61
2019-03-26T01:13:53.555Z,927.58
2019-03-26T01:14:06.073Z,927.57
2019-03-26T01:14:19.137Z,927.58
2019-03-26T01:14:32.179Z,927.58
2019-03-26T01:14:45.413Z,927.59
2019-03-26T01:14:58.459Z,927.56
2019-03-26T01:15:11.463Z,927.6
2019-03-26T01:15:24.612Z,927.6
2019-03-26T01:15:37.198Z,927.59
2019-03-26T01:15:50.129Z,927.58
2019-03-26T01:16:03.142Z,927.61
2019-03-26T01:16:16.142Z,927.57
2019-03-26T01:16:29.228Z,927.59
2019-03-26T01:16:42.246Z,927.56
2019-03-26T01:16:54.802Z,927.56
2019-03-26T01:17:07.841Z,927.56
2019-03-26T01:17:20.958Z,927.55
2019-03-26T01:17:33.938Z,927.57
2019-03-26T01:17:46.876Z,927.55
2019-03-26T01:17:59.787Z,927.53
2019-03-26T01:18:12.756Z,927.55
2019-03-26T01:18:25.806Z,927.55
2019-03-26T01:18:38.830Z,927.55
2019-03-26T01:18:51.887Z,927.54
2019-03-26T01:19:04.998Z,927.51
2019-03-26T01:19:18.060Z,927.52
2019-03-26T01:19:31.140Z,927.54
2019-03-26T01:19:44.064Z,927.52
2019-03-26T01:19:57.111Z,927.52
2019-03-26T01:20:10.367Z,927.54
2019-03-26T01:20:23.345Z,927.49
2019-03-26T01:20:36.410Z,927.53
2019-03-26T01:20:49.029Z,927.53
2019-03-26T01:21:02.063Z,927.52
2019-03-26T01:21:15.156Z,927.52
2019-03-26T01:21:28.277Z,927.51
2019-03-26T01:21:41.287Z,927.55
2019-03-26T01:21:54.226Z,927.5
2019-03-26T01:22:07.221Z,927.53
2019-03-26T01:22:20.151Z,927.5
2019-03-26T01:22:33.242Z,927.51
2019-03-26T01:22:46.231Z,927.49
2019-03-26T01:22:59.394Z,927.51
2019-03-26T01:23:12.301Z,927.51
2019-03-26T01:23:25.281Z,927.52
2019-03-26T01:23:38.223Z,927.53
2019-03-26T01:23:51.188Z,927.5
2019-03-26T01:24:04.187Z,927.51
2019-03-26T01:24:17.182Z,927.52
2019-03-26T01:24:30.173Z,927.52
2019-03-26T01:24:43.134Z,927.51
2019-03-26T01:24:56.190Z,927.52
2019-03-26T01:25:09.320Z,927.57
2019-03-26T01:25:22.282Z,927.54
2019-03-26T01:25:34.747Z,927.57
2019-03-26T01:25:49.623Z,927.54
2019-03-26T01:26:02.680Z,927.56
2019-03-26T01:26:15.696Z,927.53
2019-03-26T01:26:28.800Z,927.54
2019-03-26T01:26:41.767Z,927.55
2019-03-26T01:26:54.752Z,927.54
2019-03-26T01:27:07.881Z,927.56
2019-03-26T01:27:21.772Z,927.57
2019-03-26T01:27:34.763Z,927.54
2019-03-26T01:27:47.828Z,927.56
2019-03-26T01:28:00.817Z,927.52
2019-03-26T01:28:13.794Z,927.57
2019-03-26T01:28:26.843Z,927.57
2019-03-26T01:28:39.836Z,927.55
2019-03-26T01:28:52.831Z,927.48
2019-03-26T01:29:05.794Z,927.51
2019-03-26T01:29:18.817Z,927.52
2019-03-26T01:29:31.821Z,927.54
2019-03-26T01:29:44.841Z,927.54
2019-03-26T01:29:57.874Z,927.55
2019-03-26T01:30:10.875Z,927.53
2019-03-26T01:30:23.938Z,927.52
2019-03-26T01:30:36.998Z,927.5
2019-03-26T01:30:50.115Z,927.52
2019-03-26T01:31:03.094Z,927.51
2019-03-26T01:31:16.098Z,927.51
2019-03-26T01:31:29.064Z,927.5
2019-03-26T01:31:42.089Z,927.52
2019-03-26T01:31:55.131Z,927.49
2019-03-26T01:32:08.188Z,927.48
2019-03-26T01:32:21.211Z,927.53
2019-03-26T01:32:34.260Z,927.52
2019-03-26T01:32:47.304Z,927.51
2019-03-26T01:33:00.250Z,927.5
2019-03-26T01:33:13.177Z,927.49
2019-03-26T01:33:26.131Z,927.52
2019-03-26T01:33:39.094Z,927.55
2019-03-26T01:33:52.174Z,927.5
2019-03-26T01:34:05.183Z,927.52
2019-03-26T01:34:18.200Z,927.49
2019-03-26T01:34:31.254Z,927.46
2019-03-26T01:34:55.636Z,927.53
2019-03-26T01:35:08.651Z,927.51
2019-03-26T01:35:21.538Z,927.49
2019-03-26T01:35:34.557Z,927.52
2019-03-26T01:35:47.471Z,927.51
2019-03-26T01:36:00.510Z,927.54
2019-03-26T01:36:13.529Z,927.51
2019-03-26T01:36:26.475Z,927.49
2019-03-26T01:36:39.545Z,927.49
2019-03-26T01:36:52.508Z,927.5
2019-03-26T01:37:05.514Z,927.52
2019-03-26T01:37:18.459Z,927.51
2019-03-26T01:37:31.438Z,927.5
2019-03-26T01:37:44.424Z,927.54
2019-03-26T01:37:57.469Z,927.52
2019-03-26T01:38:10.465Z,927.51
2019-03-26T01:38:23.626Z,927.5
2019-03-26T01:38:36.575Z,927.48
2019-03-26T01:38:49.667Z,927.48
2019-03-26T01:39:02.659Z,927.5
2019-03-26T01:39:15.189Z,927.52
2019-03-26T01:39:28.220Z,927.52
2019-03-26T01:39:41.175Z,927.52
2019-03-26T01:39:54.142Z,927.52
2019-03-26T01:40:07.520Z,927.53
2019-03-26T01:40:20.522Z,927.52
2019-03-26T01:40:33.524Z,927.53
2019-03-26T01:40:46.524Z,927.55
2019-03-26T01:40:59.546Z,927.54
2019-03-26T01:41:12.653Z,927.53
2019-03-26T01:41:25.670Z,927.56
2019-03-26T01:41:38.690Z,927.53
2019-03-26T01:41:51.649Z,927.55
2019-03-26T01:42:04.642Z,927.54
2019-03-26T01:42:17.622Z,927.52
2019-03-26T01:42:30.810Z,927.55
2019-03-26T01:42:43.885Z,927.55
2019-03-26T01:42:56.961Z,927.58
2019-03-26T01:43:09.895Z,927.54
2019-03-26T01:43:22.966Z,927.53
2019-03-26T01:43:35.998Z,927.55
2019-03-26T01:43:48.971Z,927.56
2019-03-26T01:44:01.974Z,927.55
2019-03-26T01:44:14.913Z,927.57
2019-03-26T01:44:27.975Z,927.55
2019-03-26T01:44:40.514Z,927.53
2019-03-26T01:44:53.459Z,927.54
2019-03-26T01:45:06.494Z,927.59
2019-03-26T01:45:19.471Z,927.55
2019-03-26T01:45:32.458Z,927.61
2019-03-26T01:45:45.467Z,927.52
2019-03-26T01:45:58.401Z,927.53
2019-03-26T01:46:11.543Z,927.56
2019-03-26T01:46:24.540Z,927.58
2019-03-26T01:46:37.531Z,927.6
2019-03-26T01:46:50.566Z,927.55
2019-03-26T01:47:03.548Z,927.55
2019-03-26T01:47:16.598Z,927.55
2019-03-26T01:47:29.269Z,927.55
2019-03-26T01:47:42.247Z,927.53
2019-03-26T01:47:55.243Z,927.58
2019-03-26T01:48:08.349Z,927.58
2019-03-26T01:48:21.310Z,927.58
2019-03-26T01:48:34.251Z,927.57
2019-03-26T01:48:46.789Z,927.55
2019-03-26T01:48:59.861Z,927.54
2019-03-26T01:49:12.839Z,927.55
2019-03-26T01:49:25.831Z,927.55
2019-03-26T01:49:38.781Z,927.55
2019-03-26T01:49:51.690Z,927.54
2019-03-26T01:50:04.770Z,927.54
2019-03-26T01:50:17.756Z,927.58
2019-03-26T01:50:30.821Z,927.54
2019-03-26T01:50:43.887Z,927.55
2019-03-26T01:50:56.867Z,927.56
2019-03-26T01:51:09.918Z,927.54
2019-03-26T01:51:22.959Z,927.55
2019-03-26T01:51:35.926Z,927.57
2019-03-26T01:51:48.951Z,927.56
2019-03-26T01:52:02.145Z,927.54
2019-03-26T01:52:15.153Z,927.53
2019-03-26T01:52:28.195Z,927.6
2019-03-26T01:52:41.117Z,927.55
2019-03-26T01:52:54.142Z,927.6
2019-03-26T01:53:07.098Z,927.59
2019-03-26T01:53:21.428Z,927.57
2019-03-26T01:53:34.458Z,927.57
2019-03-26T01:53:47.444Z,927.55
2019-03-26T01:54:00.440Z,927.56
2019-03-26T01:54:13.431Z,927.55
2019-03-26T01:54:26.362Z,927.56
2019-03-26T01:54:39.348Z,927.59
2019-03-26T01:54:52.366Z,927.57
2019-03-26T01:55:05.359Z,927.57
2019-03-26T01:55:17.837Z,927.55
2019-03-26T01:55:30.783Z,927.55
2019-03-26T01:55:43.830Z,927.6
2019-03-26T01:55:56.843Z,927.56
2019-03-26T01:56:09.935Z,927.58
2019-03-26T01:56:22.927Z,927.57
2019-03-26T01:56:35.898Z,927.58
2019-03-26T01:56:48.854Z,927.56
2019-03-26T01:57:01.853Z,927.56
2019-03-26T01:57:14.809Z,927.63
2019-03-26T01:57:27.382Z,927.56
2019-03-26T01:57:41.021Z,927.55
2019-03-26T01:57:53.977Z,927.57
2019-03-26T01:58:06.969Z,927.56
2019-03-26T01:58:19.957Z,927.58
2019-03-26T01:58:33.050Z,927.57
2019-03-26T01:58:46.141Z,927.56
2019-03-26T01:58:59.206Z,927.56
2019-03-26T01:59:11.766Z,927.56
2019-03-26T01:59:24.839Z,927.55
2019-03-26T01:59:37.845Z,927.56
2019-03-26T01:59:50.481Z,927.55
2019-03-26T02:00:03.438Z,927.57
2019-03-26T02:00:16.363Z,927.59
2019-03-26T02:00:29.432Z,927.57
2019-03-26T02:00:42.421Z,927.58
2019-03-26T02:00:55.405Z,927.56
2019-03-26T02:01:08.383Z,927.56
2019-03-26T02:01:21.333Z,927.56
2019-03-26T02:01:33.910Z,927.54
2019-03-26T02:01:47.034Z,927.56
2019-03-26T02:02:00.008Z,927.57
2019-03-26T02:02:12.989Z,927.56
2019-03-26T02:02:25.935Z,927.59
2019-03-26T02:02:39.030Z,927.56
2019-03-26T02:02:52.091Z,927.56
2019-03-26T02:03:04.671Z,927.54
2019-03-26T02:03:17.668Z,927.58
2019-03-26T02:03:30.605Z,927.57
2019-03-26T02:03:43.627Z,927.58
2019-03-26T02:03:56.605Z,927.58
2019-03-26T02:04:09.595Z,927.57
2019-03-26T02:04:22.631Z,927.56
2019-03-26T02:04:35.653Z,927.58
2019-03-26T02:05:00.957Z,927.54
2019-03-26T02:05:14.033Z,927.53
2019-03-26T02:05:27.099Z,927.53
2019-03-26T02:05:40.158Z,927.57
2019-03-26T02:05:53.133Z,927.53
2019-03-26T02:06:06.227Z,927.55
2019-03-26T02:06:19.158Z,927.56
2019-03-26T02:06:31.740Z,927.57
2019-03-26T02:06:44.382Z,927.55
2019-03-26T02:06:57.412Z,927.56
2019-03-26T02:07:10.497Z,927.57
2019-03-26T02:07:23.452Z,927.56
2019-03-26T02:07:38.768Z,927.56
2019-03-26T02:07:52.105Z,927.53
2019-03-26T02:08:04.663Z,927.52
2019-03-26T02:08:17.759Z,927.55
2019-03-26T02:08:30.741Z,927.55
2019-03-26T02:08:43.751Z,927.48
2019-03-26T02:08:56.439Z,927.55
2019-03-26T02:09:09.429Z,927.53
2019-03-26T02:09:22.459Z,927.51
2019-03-26T02:09:35.446Z,927.55
2019-03-26T02:09:48.513Z,927.51
2019-03-26T02:10:01.638Z,927.54
2019-03-26T02:10:14.647Z,927.54
2019-03-26T02:10:27.678Z,927.52
2019-03-26T02:10:40.670Z,927.54
2019-03-26T02:10:53.861Z,927.56
2019-03-26T02:11:06.855Z,927.55
2019-03-26T02:11:19.844Z,927.51
2019-03-26T02:11:32.816Z,927.53
2019-03-26T02:11:45.316Z,927.56
2019-03-26T02:11:58.311Z,927.57
2019-03-26T02:12:11.269Z,927.56
2019-03-26T02:12:24.314Z,927.57
2019-03-26T02:12:38.414Z,927.58
2019-03-26T02:12:52.848Z,927.56
2019-03-26T02:13:05.352Z,927.57
2019-03-26T02:13:18.392Z,927.6
2019-03-26T02:13:31.485Z,927.59
2019-03-26T02:13:44.471Z,927.57
2019-03-26T02:13:57.502Z,927.58
2019-03-26T02:14:10.455Z,927.59
2019-03-26T02:14:23.495Z,927.55
2019-03-26T02:14:36.530Z,927.57
2019-03-26T02:14:49.532Z,927.54
2019-03-26T02:15:02.535Z,927.54
2019-03-26T02:15:15.476Z,927.54
2019-03-26T02:15:28.452Z,927.53
2019-03-26T02:15:41.489Z,927.53
2019-03-26T02:15:54.396Z,927.55
2019-03-26T02:16:07.050Z,927.55
2019-03-26T02:16:20.140Z,927.54
2019-03-26T02:16:33.165Z,927.52
2019-03-26T02:16:46.171Z,927.56
2019-03-26T02:16:59.130Z,927.58
2019-03-26T02:17:12.083Z,927.54
2019-03-26T02:17:25.017Z,927.5
2019-03-26T02:17:37.996Z,927.54
2019-03-26T02:17:51.044Z,927.54
2019-03-26T02:18:04.006Z,927.53
2019-03-26T02:18:17.087Z,927.53
2019-03-26T02:18:30.060Z,927.58
2019-03-26T02:18:43.047Z,927.56
2019-03-26T02:18:56.022Z,927.55
2019-03-26T02:19:09.090Z,927.54
2019-03-26T02:19:22.117Z,927.52
2019-03-26T02:19:35.228Z,927.56
2019-03-26T02:19:48.286Z,927.55
2019-03-26T02:20:01.347Z,927.56
2019-03-26T02:20:14.332Z,927.56
2019-03-26T02:20:27.311Z,927.57
2019-03-26T02:20:40.330Z,927.58
2019-03-26T02:20:53.277Z,927.58
2019-03-26T02:21:06.227Z,927.58
2019-03-26T02:21:19.181Z,927.58
2019-03-26T02:21:32.251Z,927.55
2019-03-26T02:21:45.376Z,927.56
2019-03-26T02:21:58.471Z,927.6
2019-03-26T02:22:11.416Z,927.56
2019-03-26T02:22:24.445Z,927.59
2019-03-26T02:22:37.423Z,927.6
2019-03-26T02:22:50.346Z,927.57
2019-03-26T02:23:03.434Z,927.59
2019-03-26T02:23:16.541Z,927.61
2019-03-26T02:23:29.528Z,927.62
2019-03-26T02:23:42.103Z,927.6
2019-03-26T02:23:55.163Z,927.59
2019-03-26T02:24:08.166Z,927.57
2019-03-26T02:24:21.206Z,927.59
2019-03-26T02:24:34.319Z,927.61
2019-03-26T02:24:47.288Z,927.55
2019-03-26T02:25:00.362Z,927.6
2019-03-26T02:25:12.938Z,927.59
2019-03-26T02:25:25.978Z,927.59
2019-03-26T02:25:38.993Z,927.59
2019-03-26T02:25:51.897Z,927.57
2019-03-26T02:26:04.897Z,927.57
2019-03-26T02:26:17.850Z,927.6
2019-03-26T02:26:30.764Z,927.58
2019-03-26T02:26:43.768Z,927.58
2019-03-26T02:26:56.849Z,927.62
2019-03-26T02:27:09.836Z,927.59
2019-03-26T02:27:22.904Z,927.58
2019-03-26T02:27:35.927Z,927.57
2019-03-26T02:27:49.764Z,927.55
2019-03-26T02:28:02.770Z,927.59
2019-03-26T02:28:15.789Z,927.56
2019-03-26T02:28:28.682Z,927.57
2019-03-26T02:28:41.668Z,927.55
2019-03-26T02:28:54.755Z,927.54
2019-03-26T02:29:07.780Z,927.57
2019-03-26T02:29:20.843Z,927.56
2019-03-26T02:29:33.863Z,927.56
2019-03-26T02:29:46.761Z,927.56
2019-03-26T02:29:59.723Z,927.58
2019-03-26T02:30:12.821Z,927.57
2019-03-26T02:30:25.821Z,927.55
2019-03-26T02:30:39.605Z,927.55
2019-03-26T02:30:52.651Z,927.54
2019-03-26T02:31:05.826Z,927.55
2019-03-26T02:31:18.843Z,927.59
2019-03-26T02:31:31.895Z,927.59
2019-03-26T02:31:44.899Z,927.61
2019-03-26T02:31:57.483Z,927.55
2019-03-26T02:32:10.514Z,927.57
2019-03-26T02:32:23.524Z,927.58
2019-03-26T02:32:36.588Z,927.56
2019-03-26T02:32:49.635Z,927.56
2019-03-26T02:33:02.642Z,927.58
2019-03-26T02:33:15.652Z,927.57
2019-03-26T02:33:28.665Z,927.6
2019-03-26T02:33:41.583Z,927.59
2019-03-26T02:33:54.661Z,927.58
2019-03-26T02:34:07.714Z,927.61
2019-03-26T02:34:20.786Z,927.61
2019-03-26T02:34:33.822Z,927.57
2019-03-26T02:34:46.831Z,927.6
2019-03-26T02:35:19.284Z,927.61
2019-03-26T02:35:31.891Z,927.61
2019-03-26T02:35:44.943Z,927.6
2019-03-26T02:35:58.016Z,927.61
2019-03-26T02:36:11.052Z,927.61
2019-03-26T02:36:24.173Z,927.63
2019-03-26T02:36:37.226Z,927.61
2019-03-26T02:36:50.241Z,927.61
2019-03-26T02:37:03.352Z,927.62
2019-03-26T02:37:16.399Z,927.6
2019-03-26T02:37:29.458Z,927.62
2019-03-26T02:37:42.482Z,927.58
2019-03-26T02:37:55.604Z,927.58
2019-03-26T02:38:08.614Z,927.59
2019-03-26T02:38:21.183Z,927.6
2019-03-26T02:38:34.244Z,927.62
2019-03-26T02:38:47.277Z,927.6
2019-03-26T02:39:00.352Z,927.62
2019-03-26T02:39:13.535Z,927.62
2019-03-26T02:39:26.547Z,927.61
2019-03-26T02:39:39.463Z,927.59
2019-03-26T02:39:52.453Z,927.6
2019-03-26T02:40:05.101Z,927.62
2019-03-26T02:40:18.111Z,927.64
2019-03-26T02:40:31.068Z,927.62
2019-03-26T02:40:44.162Z,927.63
2019-03-26T02:40:57.158Z,927.61
2019-03-26T02:41:10.192Z,927.61
2019-03-26T02:41:23.188Z,927.61
2019-03-26T02:41:38.981Z,927.63
2019-03-26T02:41:52.000Z,927.65
2019-03-26T02:42:05.125Z,927.63
2019-03-26T02:42:18.196Z,927.67
2019-03-26T02:42:31.252Z,927.65
2019-03-26T02:42:44.314Z,927.66
2019-03-26T02:42:58.420Z,927.63
2019-03-26T02:43:11.494Z,927.68
2019-03-26T02:43:24.540Z,927.64
2019-03-26T02:43:37.601Z,927.67
2019-03-26T02:43:50.678Z,927.67
2019-03-26T02:44:03.643Z,927.65
2019-03-26T02:44:16.647Z,927.68
2019-03-26T02:44:29.609Z,927.67
2019-03-26T02:44:42.531Z,927.7